createdAt,value
2022-12-19T00:03:29.206Z,24.40
2022-12-19T00:08:34.389Z,21.30
2022-12-19T00:13:41.150Z,29.80
2022-12-19T00:18:48.649Z,26.80
2022-12-19T00:23:54.944Z,16.10
2022-12-19T00:29:09.835Z,23.20
2022-12-19T00:34:17.409Z,16.70
2022-12-19T00:39:22.799Z,27.70
2022-12-19T00:44:28.971Z,35.30
2022-12-19T00:49:32.487Z,21.60
2022-12-19T00:54:37.335Z,15.50
2022-12-19T00:59:41.735Z,15.10
2022-12-19T01:04:45.687Z,33.60
2022-12-19T01:09:50.121Z,25.00
2022-12-19T01:15:04.435Z,27.50
2022-12-19T01:20:11.385Z,23.90
2022-12-19T01:25:16.672Z,24.20
2022-12-19T01:30:21.233Z,22.10
2022-12-19T01:35:27.075Z,22.20
2022-12-19T01:40:32.152Z,14.30
2022-12-19T01:45:45.482Z,34.70
2022-12-19T01:51:01.359Z,24.20
2022-12-19T01:56:11.626Z,28.90
2022-12-19T02:01:18.985Z,32.70
2022-12-19T02:11:28.916Z,25.30
2022-12-19T02:16:56.655Z,28.50
2022-12-19T02:22:24.459Z,22.10
2022-12-19T02:27:37.137Z,20.60
2022-12-19T02:32:52.414Z,17.40
2022-12-19T02:38:02.945Z,30.30
2022-12-19T02:43:13.809Z,22.30
2022-12-19T02:53:24.987Z,29.30
2022-12-19T02:58:40.014Z,23.40
2022-12-19T03:03:47.170Z,13.60
2022-12-19T03:09:36.898Z,31.30
2022-12-19T03:14:42.308Z,21.50
2022-12-19T03:19:46.372Z,23.50
2022-12-19T03:24:51.678Z,20.00
2022-12-19T03:30:12.999Z,23.60
2022-12-19T03:35:30.312Z,16.90
2022-12-19T03:40:37.672Z,29.00
2022-12-19T03:45:58.591Z,18.00
2022-12-19T03:51:09.118Z,17.60
2022-12-19T03:56:57.181Z,19.40
2022-12-19T04:02:03.724Z,22.00
2022-12-19T04:07:09.039Z,24.10
2022-12-19T04:12:19.569Z,22.50
2022-12-19T04:17:37.512Z,13.80
2022-12-19T04:23:07.605Z,17.70
2022-12-19T04:28:31.566Z,22.30
2022-12-19T04:33:36.593Z,21.10
2022-12-19T04:38:41.620Z,22.70
2022-12-19T04:43:45.246Z,17.10
2022-12-19T04:48:49.701Z,19.50
2022-12-19T04:53:54.949Z,13.50
2022-12-19T04:59:00.553Z,19.90
2022-12-19T05:04:05.390Z,19.10
2022-12-19T05:09:14.690Z,22.90
2022-12-19T05:14:18.851Z,25.40
2022-12-19T05:19:23.238Z,23.10
2022-12-19T05:24:28.367Z,37.40
2022-12-19T05:29:33.445Z,26.20
2022-12-19T05:34:38.478Z,29.20
2022-12-19T05:39:43.905Z,28.90
2022-12-19T05:44:49.164Z,29.10
2022-12-19T05:49:54.708Z,24.80
2022-12-19T05:54:58.899Z,32.80
2022-12-19T06:00:05.552Z,23.00
2022-12-19T06:05:11.088Z,30.40
2022-12-19T06:10:17.016Z,28.20
2022-12-19T06:15:21.754Z,32.00
2022-12-19T06:20:26.741Z,31.20
2022-12-19T06:25:30.448Z,19.80
2022-12-19T06:30:34.848Z,26.00
2022-12-19T06:35:38.821Z,29.30
2022-12-19T06:41:03.697Z,35.40
2022-12-19T06:46:09.434Z,22.20
2022-12-19T06:51:14.875Z,38.30
2022-12-19T06:56:21.019Z,39.30
2022-12-19T07:01:41.323Z,33.80
2022-12-19T07:06:49.196Z,31.80
2022-12-19T07:11:55.119Z,31.50
2022-12-19T07:17:01.671Z,27.10
2022-12-19T07:22:07.037Z,34.40
2022-12-19T07:27:10.754Z,40.20
2022-12-19T07:32:15.136Z,26.00
2022-12-19T07:37:20.326Z,33.20
2022-12-19T07:42:29.351Z,31.30
2022-12-19T07:47:38.147Z,44.60
2022-12-19T07:52:42.950Z,42.80
2022-12-19T07:57:47.793Z,25.80
2022-12-19T08:02:52.235Z,48.90
2022-12-19T08:07:57.373Z,35.00
2022-12-19T08:13:02.421Z,32.10
2022-12-19T08:18:07.293Z,39.90
2022-12-19T08:23:10.726Z,29.80
2022-12-19T08:28:14.519Z,46.10
2022-12-19T08:33:20.641Z,35.20
2022-12-19T08:38:24.171Z,39.60
2022-12-19T08:43:29.173Z,30.30
2022-12-19T08:48:34.819Z,27.70
2022-12-19T08:53:41.911Z,41.70
2022-12-19T08:58:47.293Z,36.00
2022-12-19T09:04:41.423Z,38.50
2022-12-19T09:09:17.714Z,36.40
2022-12-19T09:14:22.434Z,24.40
2022-12-19T09:19:27.913Z,35.90
2022-12-19T09:24:33.077Z,42.00
2022-12-19T09:29:36.939Z,31.90
2022-12-19T09:34:42.032Z,35.70
2022-12-19T09:39:48.335Z,44.10
2022-12-19T09:45:00.735Z,43.80
2022-12-19T09:50:33.268Z,43.80
2022-12-19T09:55:41.253Z,37.10
2022-12-19T10:00:55.050Z,35.80
2022-12-19T10:07:11.418Z,30.20
2022-12-19T10:17:23.599Z,37.20
2022-12-19T10:22:33.837Z,34.40
2022-12-19T10:27:59.446Z,35.90
2022-12-19T10:33:08.191Z,33.00
2022-12-19T10:38:38.350Z,34.30
2022-12-19T10:44:08.818Z,37.00
2022-12-19T10:49:18.432Z,36.50
2022-12-19T10:54:30.662Z,42.10
2022-12-19T10:59:38.957Z,26.60
2022-12-19T11:04:43.161Z,39.30
2022-12-19T11:10:09.174Z,34.50
2022-12-19T11:19:41.890Z,31.80
2022-12-19T11:29:54.792Z,25.40
2022-12-19T11:30:36.283Z,35.80
2022-12-19T11:37:00.565Z,44.90
2022-12-19T11:42:09.018Z,29.60
2022-12-19T11:47:25.898Z,40.60
2022-12-19T11:53:13.016Z,28.00
2022-12-19T11:58:26.244Z,35.00
2022-12-19T12:04:03.286Z,38.30
2022-12-19T12:11:13.853Z,26.40
2022-12-19T12:24:36.940Z,28.80
2022-12-19T12:31:05.880Z,32.80
2022-12-19T12:31:52.365Z,40.80
2022-12-19T12:35:55.108Z,40.00
2022-12-19T12:38:23.457Z,44.00
2022-12-19T12:43:57.680Z,33.70
2022-12-19T12:49:06.749Z,28.20
2022-12-19T12:54:16.907Z,39.90
2022-12-19T12:59:26.929Z,38.80
2022-12-19T13:04:34.116Z,38.30
2022-12-19T13:09:38.038Z,37.50
2022-12-19T13:14:46.254Z,45.70
2022-12-19T13:20:06.415Z,40.80
2022-12-19T13:25:48.711Z,34.10
2022-12-19T13:31:18.645Z,50.40
2022-12-19T13:39:51.597Z,42.90
2022-12-19T13:42:40.659Z,32.20
2022-12-19T13:47:45.783Z,47.00
2022-12-19T13:52:51.447Z,36.50
2022-12-19T13:57:56.334Z,40.90
2022-12-19T14:03:01.734Z,45.20
2022-12-19T14:08:08.268Z,38.80
2022-12-19T14:13:57.635Z,43.50
2022-12-19T14:19:01.722Z,52.90
2022-12-19T14:24:22.964Z,49.10
2022-12-19T14:30:26.730Z,42.40
2022-12-19T14:36:06.965Z,40.50
2022-12-19T14:40:41.977Z,42.80
2022-12-19T14:54:10.727Z,54.20
2022-12-19T14:54:21.239Z,49.70
2022-12-19T14:57:04.851Z,48.80
2022-12-19T15:02:10.676Z,46.40
2022-12-19T15:07:19.850Z,44.80
2022-12-19T15:14:47.748Z,40.40
2022-12-19T15:18:28.150Z,48.40
2022-12-19T15:23:33.684Z,37.40
2022-12-19T15:28:44.136Z,49.30
2022-12-19T15:34:23.408Z,48.00
2022-12-19T15:39:15.914Z,39.20
2022-12-19T15:44:31.549Z,33.50
2022-12-19T15:49:37.087Z,53.10
2022-12-19T15:54:50.504Z,40.20
2022-12-19T16:00:01.624Z,53.10
2022-12-19T16:05:07.456Z,52.40
2022-12-19T16:10:13.678Z,46.90
2022-12-19T16:15:31.479Z,54.60
2022-12-19T16:20:38.815Z,51.60
2022-12-19T16:25:46.712Z,51.70
2022-12-19T16:30:50.927Z,39.80
2022-12-19T16:36:04.649Z,53.10
2022-12-19T16:41:31.051Z,57.00
2022-12-19T16:46:51.146Z,65.20
2022-12-19T16:51:56.551Z,50.20
2022-12-19T16:57:04.366Z,53.10
2022-12-19T17:02:39.046Z,59.30
2022-12-19T17:07:44.919Z,59.90
2022-12-19T17:12:51.015Z,43.60
2022-12-19T17:18:01.694Z,34.90
2022-12-19T17:23:21.990Z,71.20
2022-12-19T17:28:28.834Z,45.50
2022-12-19T17:33:37.566Z,59.90
2022-12-19T17:38:42.195Z,56.30
2022-12-19T17:43:46.764Z,59.50
2022-12-19T17:48:54.140Z,46.70
2022-12-19T17:53:59.207Z,54.30
2022-12-19T17:59:04.373Z,46.70
2022-12-19T18:04:17.893Z,33.30
2022-12-19T18:09:25.886Z,52.60
2022-12-19T18:19:36.778Z,46.70
2022-12-19T18:24:41.457Z,49.80
2022-12-19T18:35:57.684Z,44.50
2022-12-19T18:41:04.165Z,50.60
2022-12-19T18:46:17.136Z,27.10
2022-12-19T18:51:23.892Z,36.70
2022-12-19T18:56:29.709Z,40.30
2022-12-19T19:01:40.300Z,44.40
2022-12-19T19:06:51.100Z,50.10
2022-12-19T19:11:56.380Z,47.40
2022-12-19T19:17:04.980Z,53.20
2022-12-19T19:22:11.469Z,46.50
2022-12-19T19:32:20.722Z,27.90
2022-12-19T19:37:26.747Z,42.70
2022-12-19T19:42:30.712Z,47.40
2022-12-19T19:47:37.739Z,48.10
2022-12-19T19:52:42.339Z,41.70
2022-12-19T19:57:46.185Z,39.00
2022-12-19T20:02:52.164Z,42.60
2022-12-19T20:07:56.747Z,38.50
2022-12-19T20:13:00.491Z,45.30
2022-12-19T20:18:03.869Z,41.80
2022-12-19T20:23:07.982Z,33.10
2022-12-19T20:28:11.559Z,19.00
2022-12-19T20:33:16.092Z,36.40
2022-12-19T20:38:20.945Z,36.90
2022-12-19T20:43:25.254Z,30.70
2022-12-19T20:48:32.175Z,30.70
2022-12-19T20:53:38.234Z,28.90
2022-12-19T20:58:42.594Z,30.60
2022-12-19T21:03:48.610Z,34.90
2022-12-19T21:08:55.775Z,28.90
2022-12-19T21:14:06.724Z,36.30
2022-12-19T21:19:12.491Z,29.40
2022-12-19T21:24:17.496Z,28.90
2022-12-19T21:29:22.640Z,30.60
2022-12-19T21:34:27.281Z,31.10
2022-12-19T21:39:32.144Z,41.00
2022-12-19T21:44:38.206Z,24.90
2022-12-19T21:49:43.271Z,39.80
2022-12-19T21:54:47.954Z,29.70
2022-12-19T21:59:52.939Z,32.90
2022-12-19T22:04:57.447Z,34.60
2022-12-19T22:10:02.524Z,33.00
2022-12-19T22:15:07.410Z,32.50
2022-12-19T22:20:12.893Z,29.90
2022-12-19T22:25:18.395Z,19.40
2022-12-19T22:30:23.383Z,26.80
2022-12-19T22:35:28.563Z,28.50
2022-12-19T22:40:33.425Z,30.30
2022-12-19T22:45:38.072Z,27.70
2022-12-19T22:50:47.395Z,29.50
2022-12-19T22:55:52.180Z,27.30
2022-12-19T23:00:57.130Z,27.20
2022-12-19T23:06:02.986Z,27.60
2022-12-19T23:11:09.978Z,28.80
2022-12-19T23:16:14.084Z,25.80
2022-12-19T23:21:25.134Z,27.70
2022-12-19T23:26:33.755Z,40.80
2022-12-19T23:31:41.620Z,27.00
2022-12-19T23:42:11.294Z,30.90
2022-12-19T23:47:14.899Z,28.90
2022-12-19T23:52:18.808Z,18.20
2022-12-19T23:57:22.363Z,29.00
